Time;durP1;ratioP1;P1;durP2;ratioP2;P2;SDS_P1;SDS_P2;PMS_P1;PMS_P2;Temp;Humidity;BMP_temperature;BMP_pressure;BME280_temperature;BME280_humidity;BME280_pressure;Samples;Min_cycle;Max_cycle;Signal;HPM_P1;HPM_P2
2022/11/05 00:10:02;;;;;;;35.97;20.35;;;12.90;99.90;;;;;;5054805;28;20090;-77
2022/11/05 00:17:57;;;;;;;29.05;17.92;;;12.90;99.90;;;;;;5054576;28;20237;-76
2022/11/05 00:20:23;;;;;;;28.38;16.80;;;12.80;99.90;;;;;;5036650;28;20021;-76
2022/11/05 00:25:33;;;;;;;36.22;19.48;;;12.70;99.90;;;;;;5054545;28;20033;-76
2022/11/05 00:28:01;;;;;;;34.10;18.90;;;12.70;99.90;;;;;;5054738;28;20088;-76
2022/11/05 00:30:28;;;;;;;32.97;19.30;;;12.70;99.90;;;;;;5055331;28;20021;-76
2022/11/05 00:33:01;;;;;;;27.08;16.58;;;12.70;99.90;;;;;;5055107;28;20108;-76
2022/11/05 00:35:27;;;;;;;30.40;17.83;;;12.70;99.90;;;;;;5055100;28;20476;-76
2022/11/05 00:37:53;;;;;;;30.33;16.92;;;12.60;99.90;;;;;;5055292;28;20128;-76
2022/11/05 00:40:19;;;;;;;32.72;17.75;;;12.70;99.90;;;;;;5055063;28;20064;-76
2022/11/05 00:45:30;;;;;;;26.75;15.35;;;12.80;99.90;;;;;;5054965;28;20036;-76
2022/11/05 00:50:40;;;;;;;32.92;19.58;;;12.90;99.90;;;;;;5054839;28;20390;-76
2022/11/05 00:53:07;;;;;;;34.35;21.13;;;12.80;99.90;;;;;;5054952;28;20104;-75
2022/11/05 00:55:38;;;;;;;33.35;20.15;;;12.80;99.90;;;;;;5054694;28;20112;-75
2022/11/05 00:58:12;;;;;;;34.67;20.30;;;12.80;99.90;;;;;;5054446;28;20025;-75
2022/11/05 01:00:41;;;;;;;33.22;21.38;;;12.80;99.90;;;;;;5054541;28;20574;-75
2022/11/05 01:03:11;;;;;;;33.05;19.30;;;12.90;99.90;;;;;;5054209;28;20037;-75
2022/11/05 01:05:42;;;;;;;32.67;18.95;;;12.90;99.90;;;;;;5054391;28;20379;-75
2022/11/05 01:08:09;;;;;;;31.77;17.77;;;12.80;99.90;;;;;;5054080;28;20474;-74
2022/11/05 01:10:50;;;;;;;52.97;26.60;;;12.80;99.90;;;;;;5054378;28;20025;-73
2022/11/05 01:13:17;;;;;;;46.90;23.73;;;12.90;99.90;;;;;;5054320;28;20120;-73
2022/11/05 01:15:44;;;;;;;34.85;20.38;;;12.90;99.90;;;;;;5054513;28;20051;-73
2022/11/05 01:18:10;;;;;;;23.15;14.60;;;12.90;99.90;;;;;;5057595;28;20493;-73
2022/11/05 01:20:36;;;;;;;24.58;14.68;;;12.90;99.90;;;;;;5057484;28;20029;-73
2022/11/05 01:23:02;;;;;;;21.25;13.77;;;12.90;99.90;;;;;;5057283;28;20033;-73
2022/11/05 01:25:28;;;;;;;36.90;19.60;;;12.70;99.90;;;;;;5057096;28;20032;-73
2022/11/05 01:27:54;;;;;;;33.22;19.00;;;12.70;99.90;;;;;;5057070;28;20041;-73
2022/11/05 01:30:21;;;;;;;28.17;17.70;;;12.70;99.90;;;;;;5056898;28;20021;-73
2022/11/05 01:32:46;;;;;;;20.83;14.57;;;12.70;99.90;;;;;;5056719;28;20025;-73
2022/11/05 01:35:15;;;;;;;22.55;14.10;;;12.90;99.90;;;;;;5056927;28;20051;-73
2022/11/05 01:37:41;;;;;;;24.35;14.52;;;13.00;99.90;;;;;;5056613;28;20493;-73
2022/11/05 01:40:15;;;;;;;26.60;15.52;;;13.10;99.90;;;;;;5056869;28;20025;-73
2022/11/05 01:42:42;;;;;;;24.33;14.30;;;13.00;99.90;;;;;;5056891;28;20049;-73
2022/11/05 01:45:25;;;;;;;22.42;14.50;;;12.90;99.90;;;;;;5056579;28;20021;-72
2022/11/05 01:48:21;;;;;;;23.40;14.70;;;12.90;99.90;;;;;;5056435;28;20078;-72
2022/11/05 01:50:58;;;;;;;22.63;14.68;;;12.80;99.90;;;;;;5048443;28;20047;-73
2022/11/05 01:53:36;;;;;;;22.73;13.05;;;12.70;99.90;;;;;;5056469;28;20032;-72
2022/11/05 01:56:26;;;;;;;23.33;13.57;;;12.70;99.90;;;;;;5056662;28;20095;-72
2022/11/05 01:58:59;;;;;;;37.35;18.75;;;12.70;99.90;;;;;;5055494;28;20495;-72
2022/11/05 02:01:25;;;;;;;46.05;20.45;;;12.70;99.90;;;;;;5056181;28;20041;-72
2022/11/05 02:03:54;;;;;;;43.45;21.42;;;12.70;99.90;;;;;;5056342;28;20032;-72
2022/11/05 02:06:20;;;;;;;45.28;21.98;;;12.70;99.90;;;;;;5056177;28;20060;-73
2022/11/05 02:09:05;;;;;;;28.40;16.05;;;12.70;99.90;;;;;;5056209;28;20517;-73
2022/11/05 02:11:31;;;;;;;24.20;13.65;;;12.80;99.90;;;;;;5056321;28;20029;-73
2022/11/05 02:13:58;;;;;;;24.08;13.20;;;12.80;99.90;;;;;;5056310;28;20032;-73
2022/11/05 02:16:42;;;;;;;20.17;12.45;;;12.80;99.90;;;;;;5056085;28;20100;-73
2022/11/05 02:19:35;;;;;;;16.52;11.30;;;12.80;99.90;;;;;;5055897;28;20099;-73
2022/11/05 02:22:29;;;;;;;20.23;11.27;;;12.80;99.90;;;;;;5056064;28;20029;-73
2022/11/05 02:25:09;;;;;;;17.10;10.80;;;12.80;99.90;;;;;;5037872;28;20037;-73
2022/11/05 02:27:35;;;;;;;;;;;12.80;99.90;;;;;;5055567;28;20032;-73
2022/11/05 02:30:26;;;;;;;12.73;9.38;;;12.80;99.90;;;;;;5055992;28;19905;-73
2022/11/05 02:33:18;;;;;;;15.23;10.20;;;12.70;99.90;;;;;;5055659;28;20021;-73
2022/11/05 02:36:05;;;;;;;14.32;9.23;;;12.70;99.90;;;;;;5055519;28;20390;-73
2022/11/05 02:38:47;;;;;;;17.83;9.82;;;12.70;99.90;;;;;;5055635;28;20395;-74
2022/11/05 02:41:32;;;;;;;15.38;9.50;;;12.70;99.90;;;;;;5055641;28;20029;-73
2022/11/05 02:44:30;;;;;;;13.82;8.63;;;12.70;99.90;;;;;;5055558;28;20028;-73
2022/11/05 02:47:05;;;;;;;13.15;8.85;;;12.70;99.90;;;;;;5055477;28;20471;-74
2022/11/05 02:49:38;;;;;;;14.82;8.88;;;12.70;99.90;;;;;;5055179;28;20040;-73
2022/11/05 02:52:14;;;;;;;13.77;8.77;;;12.70;99.90;;;;;;5055559;28;20078;-73
2022/11/05 02:54:47;;;;;;;11.55;8.20;;;12.70;99.90;;;;;;5055283;28;20086;-74
2022/11/05 02:57:13;;;;;;;13.90;7.57;;;12.70;99.90;;;;;;5037163;28;20359;-73
2022/11/05 02:59:39;;;;;;;10.93;7.55;;;12.70;99.90;;;;;;5055328;28;20086;-73
2022/11/05 03:02:05;;;;;;;10.23;7.75;;;12.70;99.90;;;;;;5054918;28;20044;-73
2022/11/05 03:04:31;;;;;;;12.15;7.20;;;12.70;99.90;;;;;;5055191;28;20025;-73
2022/11/05 03:07:16;;;;;;;15.30;8.40;;;12.70;99.90;;;;;;5055190;28;20510;-73
2022/11/05 03:09:50;;;;;;;13.80;8.40;;;12.70;99.90;;;;;;5054671;28;20037;-73
2022/11/05 03:12:24;;;;;;;16.15;9.07;;;12.70;99.90;;;;;;5055138;28;20583;-73
2022/11/05 03:15:14;;;;;;;21.27;9.63;;;12.70;99.90;;;;;;5055042;28;20021;-73
2022/11/05 03:17:49;;;;;;;12.50;8.25;;;12.70;99.90;;;;;;5054550;28;20029;-73
2022/11/05 03:20:34;;;;;;;12.63;8.05;;;12.70;99.90;;;;;;5054854;28;20029;-73
2022/11/05 03:23:22;;;;;;;12.75;7.75;;;12.70;99.90;;;;;;5055020;28;20329;-73
2022/11/05 03:25:55;;;;;;;12.35;8.02;;;12.80;99.90;;;;;;5054654;28;20082;-73
2022/11/05 03:28:25;;;;;;;12.45;8.27;;;12.80;99.90;;;;;;5054699;28;20071;-73
2022/11/05 03:30:55;;;;;;;14.60;8.00;;;12.80;99.90;;;;;;5054849;28;20025;-73
2022/11/05 03:33:26;;;;;;;16.20;9.03;;;12.70;99.90;;;;;;5054496;28;20028;-73
2022/11/05 03:36:00;;;;;;;14.10;8.77;;;12.70;99.90;;;;;;5054717;28;20029;-73
2022/11/05 03:38:36;;;;;;;13.38;7.72;;;12.60;99.90;;;;;;5053589;28;20079;-74
2022/11/05 03:41:10;;;;;;;13.20;8.35;;;12.70;99.90;;;;;;5054707;28;20028;-74
2022/11/05 03:43:41;;;;;;;13.98;7.70;;;12.90;99.90;;;;;;5054547;28;20407;-74
2022/11/05 03:46:14;;;;;;;11.88;8.10;;;12.90;99.90;;;;;;5054337;28;20029;-74
2022/11/05 03:48:47;;;;;;;15.20;8.65;;;12.80;99.90;;;;;;5054363;28;20479;-74
2022/11/05 03:51:33;;;;;;;13.65;8.52;;;12.80;99.90;;;;;;5054548;28;20484;-74
2022/11/05 03:54:01;;;;;;;15.38;8.13;;;12.80;99.90;;;;;;5054283;28;20033;-74
2022/11/05 03:56:33;;;;;;;15.98;9.25;;;12.70;99.90;;;;;;5054344;28;20021;-74
2022/11/05 03:59:01;;;;;;;15.63;8.95;;;12.70;99.90;;;;;;5054376;28;20029;-74
2022/11/05 04:01:28;;;;;;;17.48;9.43;;;12.80;99.90;;;;;;5054137;28;20040;-74
2022/11/05 04:03:55;;;;;;;18.13;9.68;;;12.80;99.90;;;;;;5054246;28;20047;-74
2022/11/05 04:14:34;;;;;;;13.70;8.57;;;13.00;99.90;;;;;;5034257;28;20017;-75
2022/11/05 04:17:07;;;;;;;16.10;9.23;;;12.90;99.90;;;;;;5034315;28;20072;-74
2022/11/05 04:25:08;;;;;;;16.58;9.50;;;13.00;99.90;;;;;;5034321;28;20029;-74
2022/11/05 04:27:35;;;;;;;14.25;8.82;;;13.00;99.90;;;;;;5034115;28;20041;-74
2022/11/05 04:30:22;;;;;;;14.52;9.50;;;12.90;99.90;;;;;;5033909;28;20087;-73
2022/11/05 04:32:55;;;;;;;13.48;8.52;;;12.90;99.90;;;;;;5034156;28;20076;-74
2022/11/05 04:35:21;;;;;;;13.65;8.38;;;12.90;99.90;;;;;;5032794;28;20482;-74
2022/11/05 04:37:47;;;;;;;15.63;8.93;;;13.00;99.90;;;;;;5038261;28;20017;-74
2022/11/05 04:40:13;;;;;;;11.23;7.78;;;13.00;99.90;;;;;;5053919;28;20479;-74
2022/11/05 04:42:39;;;;;;;12.93;8.20;;;13.00;99.90;;;;;;5053857;28;20032;-75
2022/11/05 04:45:05;;;;;;;13.23;9.95;;;13.00;99.90;;;;;;5053843;28;20412;-75
2022/11/05 04:47:31;;;;;;;11.05;7.05;;;13.00;99.90;;;;;;5053996;28;20022;-74
2022/11/05 04:49:57;;;;;;;12.75;7.80;;;13.00;99.90;;;;;;5054174;28;20460;-74
2022/11/05 04:52:23;;;;;;;12.38;7.05;;;13.00;99.90;;;;;;5057701;28;20545;-75
2022/11/05 04:54:48;;;;;;;11.95;7.25;;;12.90;99.90;;;;;;5057777;28;20549;-74
2022/11/05 04:57:14;;;;;;;9.23;6.15;;;12.80;99.90;;;;;;5057468;28;20536;-74
2022/11/05 04:59:40;;;;;;;11.52;7.25;;;12.80;99.90;;;;;;5057510;28;20037;-74
2022/11/05 05:02:06;;;;;;;10.73;7.72;;;12.80;99.90;;;;;;5057406;28;20048;-74
2022/11/05 05:04:32;;;;;;;10.82;7.20;;;12.80;99.90;;;;;;5057355;28;20028;-74
2022/11/05 05:06:58;;;;;;;12.75;8.23;;;12.90;99.90;;;;;;5057497;28;20072;-73
2022/11/05 05:09:24;;;;;;;13.02;8.05;;;12.80;99.90;;;;;;5057360;28;20248;-73
2022/11/05 05:11:50;;;;;;;11.75;6.82;;;12.80;99.90;;;;;;5057215;28;20049;-74
2022/11/05 05:14:16;;;;;;;10.23;7.05;;;12.70;99.90;;;;;;5057132;28;20028;-74
2022/11/05 05:16:42;;;;;;;17.20;10.43;;;12.80;99.90;;;;;;5057240;28;20025;-74
2022/11/05 05:19:07;;;;;;;12.63;7.90;;;12.80;99.90;;;;;;5057128;28;20029;-75
2022/11/05 05:21:40;;;;;;;13.57;8.32;;;12.90;99.90;;;;;;5057360;28;20116;-74
2022/11/05 05:24:14;;;;;;;9.95;6.55;;;12.90;99.90;;;;;;5057066;28;20029;-74
2022/11/05 05:26:48;;;;;;;11.80;6.22;;;12.80;99.90;;;;;;5056933;28;20061;-74
2022/11/05 05:29:15;;;;;;;7.30;4.03;;;12.90;99.90;;;;;;5057180;28;20029;-74
2022/11/05 05:31:41;;;;;;;8.05;3.30;;;12.80;99.90;;;;;;5057017;28;20096;-75
2022/11/05 05:34:10;;;;;;;11.82;4.05;;;12.80;99.90;;;;;;5056944;28;20547;-74
2022/11/05 05:36:36;;;;;;;4.97;3.33;;;12.70;99.90;;;;;;5057117;28;20083;-74
2022/11/05 05:39:05;;;;;;;9.57;5.00;;;12.60;99.90;;;;;;5056748;28;20368;-74
2022/11/05 05:41:32;;;;;;;6.78;2.28;;;12.70;99.90;;;;;;5056835;28;20030;-74
2022/11/05 05:43:58;;;;;;;5.03;2.67;;;12.70;99.90;;;;;;5057139;28;20066;-73
2022/11/05 05:46:24;;;;;;;3.47;2.25;;;12.50;99.90;;;;;;5057218;28;20040;-73
2022/11/05 05:48:51;;;;;;;3.35;2.10;;;12.30;99.90;;;;;;5056829;28;20452;-73
2022/11/05 05:51:18;;;;;;;5.10;2.10;;;12.40;99.90;;;;;;5056795;28;20032;-73
2022/11/05 05:53:44;;;;;;;8.98;2.95;;;12.40;99.90;;;;;;5056405;28;20552;-73
2022/11/05 05:56:10;;;;;;;7.25;1.90;;;12.20;99.90;;;;;;5056831;28;20091;-73
2022/11/05 05:58:38;;;;;;;4.78;2.70;;;11.90;99.90;;;;;;5056453;28;20494;-73
2022/11/05 06:01:07;;;;;;;7.90;2.65;;;12.10;99.90;;;;;;5055979;28;20025;-73
2022/11/05 06:03:33;;;;;;;4.50;2.10;;;12.00;99.90;;;;;;5038286;28;20505;-73
2022/11/05 06:06:09;;;;;;;5.85;2.67;;;11.90;99.90;;;;;;5056538;28;20020;-73
2022/11/05 06:08:35;;;;;;;3.65;1.88;;;11.70;99.90;;;;;;5056438;28;20037;-73
2022/11/05 06:11:02;;;;;;;7.13;3.97;;;11.50;99.90;;;;;;5056368;28;20057;-73
2022/11/05 06:13:29;;;;;;;4.07;2.72;;;11.60;99.90;;;;;;5056226;28;20452;-73
2022/11/05 06:16:02;;;;;;;5.82;3.80;;;11.50;99.90;;;;;;5055908;28;20025;-73
2022/11/05 06:18:29;;;;;;;8.55;3.72;;;11.50;99.90;;;;;;5056170;28;20037;-73
2022/11/05 06:21:10;;;;;;;26.38;13.43;;;11.50;99.90;;;;;;5056188;28;20033;-73
2022/11/05 06:23:37;;;;;;;28.55;12.48;;;11.50;99.90;;;;;;5056047;28;20391;-74
2022/11/05 06:26:06;;;;;;;21.50;9.32;;;11.60;99.90;;;;;;5055993;28;20047;-73
2022/11/05 06:28:32;;;;;;;11.18;5.50;;;11.70;99.90;;;;;;5055845;28;20032;-73
2022/11/05 06:30:58;;;;;;;6.13;4.30;;;11.60;99.90;;;;;;5055690;28;20490;-73
2022/11/05 06:33:25;;;;;;;7.20;3.50;;;11.30;99.90;;;;;;5055576;28;20025;-73
2022/11/05 06:35:52;;;;;;;4.30;2.17;;;11.30;99.90;;;;;;5055737;28;20108;-73
2022/11/05 06:38:19;;;;;;;3.42;1.85;;;11.20;99.90;;;;;;5056084;28;20025;-72
2022/11/05 06:40:45;;;;;;;7.25;3.05;;;11.30;99.90;;;;;;5055802;28;20081;-73
2022/11/05 06:43:10;;;;;;;4.07;1.60;;;11.20;99.90;;;;;;5055561;28;20045;-73
2022/11/05 06:45:36;;;;;;;7.22;1.88;;;11.20;99.90;;;;;;5055580;28;20032;-73
2022/11/05 06:48:02;;;;;;;8.90;2.60;;;11.00;99.90;;;;;;5055429;28;20021;-73
2022/11/05 06:50:28;;;;;;;9.02;2.10;;;11.10;99.90;;;;;;5055357;28;20112;-73
2022/11/05 06:52:55;;;;;;;6.22;1.80;;;11.20;99.90;;;;;;5037471;28;20096;-73
2022/11/05 06:55:22;;;;;;;7.20;1.08;;;11.20;99.90;;;;;;5055364;28;20052;-73
2022/11/05 06:57:48;;;;;;;2.08;0.80;;;11.10;99.90;;;;;;5055355;28;20044;-73
2022/11/05 07:00:14;;;;;;;11.48;2.72;;;11.00;99.90;;;;;;5055192;28;20037;-74
2022/11/05 07:02:40;;;;;;;9.68;2.58;;;10.90;99.90;;;;;;5055078;28;20475;-73
2022/11/05 07:05:09;;;;;;;4.93;1.67;;;10.90;99.90;;;;;;5054976;28;20033;-73
2022/11/05 07:07:39;;;;;;;12.95;3.20;;;11.00;99.90;;;;;;5055256;28;20025;-74
2022/11/05 07:10:07;;;;;;;9.15;2.58;;;11.00;99.90;;;;;;5055041;28;20064;-73
2022/11/05 07:12:33;;;;;;;10.05;2.30;;;10.90;99.90;;;;;;5054826;28;20029;-72
2022/11/05 07:14:59;;;;;;;4.25;1.13;;;10.90;99.90;;;;;;5055073;28;20029;-72
2022/11/05 07:17:25;;;;;;;5.00;1.50;;;10.80;99.90;;;;;;5037146;28;20468;-72
2022/11/05 07:19:51;;;;;;;5.53;1.42;;;10.70;99.90;;;;;;5054792;28;20156;-72
2022/11/05 07:22:17;;;;;;;2.90;1.60;;;10.70;99.90;;;;;;5055028;28;20458;-73
2022/11/05 07:24:46;;;;;;;12.07;4.38;;;10.70;99.90;;;;;;5036846;28;20522;-72
2022/11/05 07:27:15;;;;;;;7.38;3.97;;;10.90;99.90;;;;;;5054776;28;20025;-72
2022/11/05 07:29:41;;;;;;;5.85;2.53;;;10.90;99.90;;;;;;5054943;28;20478;-73
2022/11/05 07:32:07;;;;;;;8.63;4.90;;;10.90;99.90;;;;;;5054734;28;20018;-73
2022/11/05 07:34:33;;;;;;;11.15;5.32;;;10.90;99.90;;;;;;5054616;28;20100;-73
2022/11/05 07:36:59;;;;;;;16.65;5.95;;;10.80;99.90;;;;;;5054737;28;20554;-72
2022/11/05 07:39:25;;;;;;;15.05;7.45;;;10.60;99.90;;;;;;5054777;28;20064;-73
2022/11/05 07:41:56;;;;;;;17.70;6.22;;;10.60;99.90;;;;;;5054514;28;20446;-72
2022/11/05 07:44:29;;;;;;;14.02;6.03;;;10.70;99.90;;;;;;5036667;28;20494;-72
2022/11/05 07:46:55;;;;;;;12.10;5.65;;;10.80;99.90;;;;;;5054524;28;20028;-72
2022/11/05 07:49:22;;;;;;;8.70;4.53;;;10.90;99.90;;;;;;5054291;28;20424;-73
2022/11/05 07:51:48;;;;;;;19.40;6.50;;;10.80;99.90;;;;;;5054539;28;20708;-73
2022/11/05 07:54:14;;;;;;;11.93;5.13;;;10.90;99.90;;;;;;5054661;28;20033;-73
2022/11/05 07:56:40;;;;;;;8.98;4.72;;;10.80;99.90;;;;;;5054214;28;20500;-73
2022/11/05 07:59:06;;;;;;;7.93;4.90;;;10.80;99.90;;;;;;5054403;28;20052;-73
2022/11/05 08:01:32;;;;;;;8.18;4.38;;;10.80;99.90;;;;;;5054158;28;20037;-73
2022/11/05 08:03:58;;;;;;;13.30;5.78;;;10.90;99.90;;;;;;5054193;28;20039;-72
2022/11/05 08:06:24;;;;;;;20.92;9.23;;;10.90;99.90;;;;;;5054287;28;20037;-72
2022/11/05 08:08:49;;;;;;;16.75;7.65;;;10.90;99.90;;;;;;5054216;28;20044;-73
2022/11/05 08:11:15;;;;;;;17.15;7.93;;;10.90;99.90;;;;;;5054247;28;20374;-73
2022/11/05 08:13:42;;;;;;;17.90;9.00;;;10.80;99.90;;;;;;5054083;28;20470;-73
2022/11/05 08:16:09;;;;;;;18.52;8.75;;;10.80;99.90;;;;;;5053992;28;20029;-73
2022/11/05 08:18:35;;;;;;;21.13;9.25;;;10.80;99.90;;;;;;5054131;28;20029;-72
2022/11/05 08:21:03;;;;;;;24.20;10.00;;;10.70;99.90;;;;;;5054088;28;20025;-73
2022/11/05 08:23:30;;;;;;;21.85;8.20;;;10.80;99.90;;;;;;5053852;28;20115;-73
2022/11/05 08:25:57;;;;;;;15.07;6.10;;;10.90;99.90;;;;;;5056364;28;20490;-73
2022/11/05 08:28:24;;;;;;;9.35;5.00;;;10.90;99.90;;;;;;5058081;28;20036;-72
2022/11/05 08:30:52;;;;;;;6.95;4.05;;;10.90;99.90;;;;;;5057904;28;20033;-72
2022/11/05 08:33:19;;;;;;;6.88;3.72;;;10.90;99.90;;;;;;5058019;28;20027;-72
2022/11/05 08:35:46;;;;;;;7.57;4.22;;;10.80;99.90;;;;;;5058151;28;20040;-72
2022/11/05 08:38:14;;;;;;;18.45;6.00;;;10.90;99.90;;;;;;5057750;28;20025;-74
2022/11/05 08:40:42;;;;;;;17.30;6.50;;;10.90;99.90;;;;;;5057965;28;20041;-74
2022/11/05 08:43:10;;;;;;;13.25;4.75;;;10.90;99.90;;;;;;5057927;28;20021;-74
2022/11/05 08:45:37;;;;;;;9.95;4.35;;;11.00;99.90;;;;;;5057560;28;20104;-74
2022/11/05 08:48:07;;;;;;;10.63;4.07;;;11.00;99.90;;;;;;5057808;28;20025;-74
2022/11/05 08:50:34;;;;;;;9.85;3.80;;;11.00;99.90;;;;;;5057899;28;20082;-73
2022/11/05 08:53:00;;;;;;;5.90;2.72;;;10.90;99.90;;;;;;5057644;28;20458;-73
2022/11/05 08:55:26;;;;;;;4.63;2.53;;;10.90;99.90;;;;;;5057714;28;20059;-72
2022/11/05 08:58:03;;;;;;;7.82;3.00;;;10.90;99.90;;;;;;5057575;28;20032;-72
2022/11/05 09:00:31;;;;;;;5.68;2.85;;;11.00;99.90;;;;;;5057246;28;20025;-72
2022/11/05 09:03:01;;;;;;;5.63;2.40;;;10.80;99.90;;;;;;5057525;28;20128;-72
2022/11/05 09:05:29;;;;;;;1.50;1.20;;;10.80;99.90;;;;;;5057247;28;20145;-72
2022/11/05 09:07:55;;;;;;;5.47;2.72;;;10.80;99.90;;;;;;5057363;28;20033;-72
2022/11/05 09:10:21;;;;;;;7.90;2.65;;;10.70;99.90;;;;;;5057454;28;20429;-72
2022/11/05 09:12:47;;;;;;;9.68;5.35;;;10.80;99.90;;;;;;5057269;28;20029;-73
2022/11/05 09:15:13;;;;;;;5.13;3.83;;;10.80;99.90;;;;;;5057134;28;20025;-72
2022/11/05 09:17:39;;;;;;;8.93;4.10;;;10.80;99.90;;;;;;5057199;28;20025;-72
2022/11/05 09:20:06;;;;;;;12.02;3.53;;;10.80;99.90;;;;;;5056986;28;20120;-72
2022/11/05 09:22:32;;;;;;;11.00;2.70;;;10.90;99.90;;;;;;5057153;28;20099;-72
2022/11/05 09:24:58;;;;;;;8.43;2.55;;;10.90;99.90;;;;;;5057087;28;20514;-72
2022/11/05 09:27:25;;;;;;;6.78;2.70;;;10.70;99.90;;;;;;5056917;28;20040;-72
2022/11/05 09:29:51;;;;;;;8.18;3.10;;;10.70;99.90;;;;;;5039151;28;20033;-72
2022/11/05 09:32:18;;;;;;;6.22;3.50;;;10.70;99.90;;;;;;5057032;28;20425;-72
2022/11/05 09:34:44;;;;;;;9.27;3.63;;;10.80;99.90;;;;;;5056900;28;20052;-72
2022/11/05 09:37:10;;;;;;;5.55;2.58;;;10.80;99.90;;;;;;5056080;28;20025;-72
2022/11/05 09:39:36;;;;;;;8.63;4.47;;;10.70;99.90;;;;;;5056749;28;20057;-72
2022/11/05 09:42:07;;;;;;;17.40;6.55;;;10.70;99.90;;;;;;5056602;28;20083;-72
2022/11/05 09:44:42;;;;;;;11.27;5.00;;;10.70;99.90;;;;;;5056891;28;20031;-72
2022/11/05 09:47:15;;;;;;;14.35;6.28;;;10.80;99.90;;;;;;5056390;28;20107;-72
2022/11/05 09:49:47;;;;;;;10.10;3.70;;;10.70;99.90;;;;;;5056256;28;20530;-72
2022/11/05 09:52:20;;;;;;;20.02;6.47;;;10.60;99.90;;;;;;5056642;28;20025;-72
2022/11/05 09:54:49;;;;;;;14.13;6.43;;;10.60;99.90;;;;;;5056504;28;20057;-72
2022/11/05 09:57:31;;;;;;;14.35;5.68;;;10.70;99.90;;;;;;5056488;28;20104;-72
2022/11/05 10:00:01;;;;;;;13.93;5.75;;;10.70;99.90;;;;;;5056184;28;20364;-72
2022/11/05 10:02:49;;;;;;;14.00;4.90;;;10.80;99.90;;;;;;5056133;28;20561;-72
2022/11/05 10:05:17;;;;;;;8.77;4.78;;;10.80;99.90;;;;;;5056377;28;20266;-72
2022/11/05 10:07:50;;;;;;;10.63;4.75;;;10.80;99.90;;;;;;5056223;28;20116;-72
2022/11/05 10:10:43;;;;;;;8.20;4.25;;;10.70;99.90;;;;;;5056167;28;20087;-72
2022/11/05 10:13:31;;;;;;;8.65;4.40;;;10.80;99.90;;;;;;5056159;28;20029;-73
2022/11/05 10:16:02;;;;;;;6.65;2.63;;;10.90;99.90;;;;;;5055817;28;20029;-72
2022/11/05 10:18:43;;;;;;;;;;;10.80;99.90;;;;;;5056585;28;20017;-72
2022/11/05 10:21:16;;;;;;;5.00;2.05;;;10.80;99.90;;;;;;5056081;28;19913;-72
2022/11/05 10:23:43;;;;;;;7.90;2.50;;;10.80;99.90;;;;;;5055915;28;20403;-72
2022/11/05 10:26:15;;;;;;;10.93;4.00;;;10.80;99.90;;;;;;5055718;28;20035;-72
2022/11/05 10:28:41;;;;;;;4.10;2.72;;;10.90;99.90;;;;;;5037908;28;20091;-72
2022/11/05 10:31:11;;;;;;;9.60;3.17;;;10.90;99.90;;;;;;5055606;28;20029;-72
2022/11/05 10:33:42;;;;;;;7.00;3.37;;;10.90;99.90;;;;;;5055806;28;20032;-72
2022/11/05 10:36:21;;;;;;;7.25;3.53;;;10.80;99.90;;;;;;5055815;28;20403;-72
2022/11/05 10:38:47;;;;;;;7.82;4.45;;;10.90;99.90;;;;;;5055396;28;20467;-73
2022/11/05 10:41:40;;;;;;;10.65;2.88;;;10.90;99.90;;;;;;5055541;28;20356;-73
2022/11/05 10:44:24;;;;;;;9.77;4.00;;;10.90;99.90;;;;;;5055570;28;20054;-73
2022/11/05 10:47:17;;;;;;;4.95;1.90;;;11.00;99.90;;;;;;5055418;28;20083;-73
2022/11/05 10:49:49;;;;;;;3.85;1.90;;;11.00;99.90;;;;;;5019989;28;20068;-73
2022/11/05 10:52:36;;;;;;;5.43;2.60;;;11.00;99.90;;;;;;5055451;28;20032;-73
2022/11/05 10:55:34;;;;;;;5.28;2.55;;;10.90;99.90;;;;;;5055366;28;20013;-73
2022/11/05 10:58:12;;;;;;;5.07;3.20;;;11.00;99.90;;;;;;5055329;28;20540;-73
2022/11/05 11:59:21;;;;;;;14.95;5.30;;;10.40;99.90;;;;;;5133441;27;20436;-73
2022/11/05 12:02:20;;;;;;;11.02;5.03;;;10.60;99.90;;;;;;5133392;28;20019;-73
2022/11/05 12:05:08;;;;;;;6.47;3.72;;;10.60;99.90;;;;;;5133195;28;20077;-73
2022/11/05 12:07:53;;;;;;;8.52;3.88;;;10.60;99.90;;;;;;5133142;27;20023;-73
2022/11/05 12:10:31;;;;;;;24.95;6.45;;;10.70;99.90;;;;;;5132838;28;20072;-73
2022/11/05 12:13:19;;;;;;;11.77;4.30;;;10.70;99.90;;;;;;5132933;28;20028;-73
2022/11/05 12:16:12;;;;;;;4.53;2.42;;;10.70;99.90;;;;;;5114540;28;20039;-73
2022/11/05 12:18:59;;;;;;;10.10;3.10;;;10.70;99.90;;;;;;5131839;28;20453;-73
2022/11/05 12:21:40;;;;;;;11.07;3.35;;;10.80;99.90;;;;;;5131801;28;20114;-73
2022/11/05 12:24:09;;;;;;;5.50;3.53;;;10.80;99.90;;;;;;5132801;28;20038;-73
2022/11/05 12:26:43;;;;;;;12.48;4.70;;;10.80;99.90;;;;;;5132648;28;20062;-73
2022/11/05 12:29:45;;;;;;;10.63;4.75;;;10.90;99.90;;;;;;5132801;27;20028;-73
2022/11/05 12:32:20;;;;;;;9.65;3.65;;;10.80;99.90;;;;;;5132566;28;20468;-74
2022/11/05 12:35:17;;;;;;;6.60;2.08;;;10.90;99.90;;;;;;5132403;28;20019;-73
2022/11/05 12:38:05;;;;;;;4.85;3.03;;;10.90;99.90;;;;;;5127734;28;20586;-73
2022/11/05 12:41:00;;;;;;;8.55;3.15;;;10.80;99.90;;;;;;5131017;28;20016;-73
2022/11/05 12:44:00;;;;;;;15.88;4.40;;;10.70;99.90;;;;;;5122947;28;20047;-73
2022/11/05 12:46:58;;;;;;;6.75;2.80;;;10.90;99.90;;;;;;5132259;28;20027;-73
2022/11/05 12:49:30;;;;;;;8.80;3.97;;;10.90;99.90;;;;;;5131007;28;20031;-73
2022/11/05 12:52:14;;;;;;;8.98;3.50;;;10.90;99.90;;;;;;5113974;28;20023;-73
2022/11/05 12:54:42;;;;;;;6.47;2.90;;;10.70;99.90;;;;;;5132286;28;20034;-73
2022/11/05 12:57:12;;;;;;;9.23;3.50;;;10.80;99.90;;;;;;5131964;28;20051;-73
2022/11/05 12:59:49;;;;;;;13.27;5.25;;;10.80;99.90;;;;;;5120423;28;20037;-73
2022/11/05 13:02:44;;;;;;;12.88;3.70;;;10.80;99.90;;;;;;5118363;28;20036;-73
2022/11/05 13:05:40;;;;;;;8.77;3.67;;;10.70;99.90;;;;;;5112966;28;20040;-73
2022/11/05 13:08:17;;;;;;;8.90;4.70;;;10.60;99.90;;;;;;5118139;28;20027;-73
2022/11/05 13:10:54;;;;;;;11.23;5.75;;;10.60;99.90;;;;;;5118153;28;20046;-73
2022/11/05 13:13:31;;;;;;;12.77;5.28;;;10.60;99.90;;;;;;5118332;28;20022;-73
2022/11/05 13:16:03;;;;;;;12.65;5.45;;;10.80;99.90;;;;;;5118467;28;20024;-73
2022/11/05 13:18:41;;;;;;;15.27;6.50;;;10.70;99.90;;;;;;5116855;28;20031;-75
2022/11/05 13:21:09;;;;;;;20.00;7.20;;;10.70;99.90;;;;;;5118306;28;20052;-73
2022/11/05 13:23:41;;;;;;;12.77;4.45;;;10.60;99.90;;;;;;5118397;28;20031;-74
2022/11/05 13:26:21;;;;;;;13.43;6.97;;;10.70;99.90;;;;;;5118114;28;20090;-74
2022/11/05 13:28:58;;;;;;;16.75;4.75;;;10.60;99.90;;;;;;5118076;28;20118;-74
2022/11/05 13:31:33;;;;;;;11.80;4.50;;;10.60;99.90;;;;;;5118133;28;20057;-74
2022/11/05 13:34:03;;;;;;;8.70;3.90;;;10.60;99.90;;;;;;5116670;28;20563;-74
2022/11/05 13:39:52;;;;;;;11.38;4.65;;;10.40;99.90;;;;;;5117698;28;20028;-74
2022/11/05 13:42:39;;;;;;;12.40;4.85;;;10.50;99.90;;;;;;5117697;28;20024;-74
2022/11/05 13:45:20;;;;;;;7.65;3.47;;;10.50;99.90;;;;;;5117602;28;20019;-74
2022/11/05 13:48:04;;;;;;;;;;;10.50;99.90;;;;;;5118308;28;20034;-74
2022/11/05 13:50:50;;;;;;;19.95;6.82;;;10.40;99.90;;;;;;5117673;28;20279;-73
2022/11/05 13:53:25;;;;;;;11.70;4.68;;;10.40;99.90;;;;;;5117697;28;20058;-73
2022/11/05 13:56:24;;;;;;;13.18;5.40;;;10.40;99.90;;;;;;5117777;28;20031;-73
2022/11/05 13:59:17;;;;;;;14.63;5.57;;;10.40;99.90;;;;;;5116573;28;20047;-74
2022/11/05 14:01:52;;;;;;;13.55;6.15;;;10.30;99.90;;;;;;5116358;28;20094;-74
2022/11/05 14:04:45;;;;;;;12.73;5.80;;;10.40;99.90;;;;;;5117469;28;20057;-73
2022/11/05 14:07:24;;;;;;;8.57;4.70;;;10.50;99.90;;;;;;5112621;28;20065;-73
2022/11/05 14:10:14;;;;;;;16.17;6.80;;;10.40;99.90;;;;;;5116873;28;20019;-73
2022/11/05 14:12:47;;;;;;;13.90;6.30;;;10.40;99.90;;;;;;5105993;28;20032;-73
2022/11/05 14:15:21;;;;;;;8.73;4.63;;;10.40;99.90;;;;;;5116998;28;20023;-73
2022/11/05 14:17:56;;;;;;;9.02;5.18;;;10.30;99.90;;;;;;5115773;28;20038;-73
2022/11/05 14:20:29;;;;;;;12.48;5.70;;;10.20;99.90;;;;;;5116793;28;20468;-73
2022/11/05 14:23:24;;;;;;;9.82;4.65;;;10.10;99.90;;;;;;5116770;28;20468;-73
2022/11/05 14:25:51;;;;;;;13.38;5.25;;;10.20;99.90;;;;;;5116423;28;20476;-73
2022/11/05 14:28:35;;;;;;;10.95;6.13;;;10.20;99.90;;;;;;5116354;28;20525;-74
2022/11/05 14:31:04;;;;;;;13.82;6.40;;;10.30;99.90;;;;;;5115129;28;20027;-73
2022/11/05 14:33:38;;;;;;;28.95;12.00;;;10.20;99.90;;;;;;5116475;28;20030;-73
2022/11/05 14:36:32;;;;;;;29.08;12.20;;;10.20;99.90;;;;;;5116203;28;20468;-73
2022/11/05 14:39:21;;;;;;;25.25;10.88;;;10.30;99.90;;;;;;5116450;27;20054;-73
2022/11/05 14:42:14;;;;;;;23.73;11.55;;;10.30;99.90;;;;;;5115728;28;20036;-73
2022/11/05 14:45:17;;;;;;;19.60;8.93;;;10.30;99.90;;;;;;5116024;28;20461;-74